sensor_id;sensor_type;location;lat;lon;timestamp;P1;durP1;ratioP1;P2;durP2;ratioP2
35462;SDS011;21578;47.892;9.970;2022-08-06T00:04:33;3.73;;;1.60;;
35462;SDS011;21578;47.892;9.970;2022-08-06T00:09:20;1.63;;;1.53;;
35462;SDS011;21578;47.892;9.970;2022-08-06T00:14:09;1.87;;;1.77;;
35462;SDS011;21578;47.892;9.970;2022-08-06T00:18:56;1.80;;;1.70;;
35462;SDS011;21578;47.892;9.970;2022-08-06T00:23:43;2.10;;;2.00;;
35462;SDS011;21578;47.892;9.970;2022-08-06T00:28:30;2.07;;;1.67;;
35462;SDS011;21578;47.892;9.970;2022-08-06T00:33:19;3.10;;;2.07;;
35462;SDS011;21578;47.892;9.970;2022-08-06T00:38:06;1.80;;;1.70;;
35462;SDS011;21578;47.892;9.970;2022-08-06T00:42:53;2.17;;;2.00;;
35462;SDS011;21578;47.892;9.970;2022-08-06T00:47:41;2.33;;;2.03;;
35462;SDS011;21578;47.892;9.970;2022-08-06T00:52:30;1.90;;;1.80;;
35462;SDS011;21578;47.892;9.970;2022-08-06T00:57:17;2.10;;;2.00;;
35462;SDS011;21578;47.892;9.970;2022-08-06T01:02:04;2.17;;;2.07;;
35462;SDS011;21578;47.892;9.970;2022-08-06T01:06:51;2.00;;;1.90;;
35462;SDS011;21578;47.892;9.970;2022-08-06T01:11:40;2.10;;;2.00;;
35462;SDS011;21578;47.892;9.970;2022-08-06T01:16:28;2.20;;;2.00;;
35462;SDS011;21578;47.892;9.970;2022-08-06T01:21:28;2.73;;;2.53;;
35462;SDS011;21578;47.892;9.970;2022-08-06T01:26:32;2.20;;;2.10;;
35462;SDS011;21578;47.892;9.970;2022-08-06T01:31:28;1.70;;;1.60;;
35462;SDS011;21578;47.892;9.970;2022-08-06T01:36:22;2.10;;;1.87;;
35462;SDS011;21578;47.892;9.970;2022-08-06T01:41:14;1.77;;;1.67;;
35462;SDS011;21578;47.892;9.970;2022-08-06T01:46:20;3.33;;;1.80;;
35462;SDS011;21578;47.892;9.970;2022-08-06T01:51:10;1.40;;;1.40;;
35462;SDS011;21578;47.892;9.970;2022-08-06T01:55:59;2.17;;;2.07;;
35462;SDS011;21578;47.892;9.970;2022-08-06T02:00:48;2.10;;;2.00;;
35462;SDS011;21578;47.892;9.970;2022-08-06T02:05:37;1.80;;;1.70;;
35462;SDS011;21578;47.892;9.970;2022-08-06T02:10:27;2.23;;;2.03;;
35462;SDS011;21578;47.892;9.970;2022-08-06T02:15:20;3.17;;;2.50;;
35462;SDS011;21578;47.892;9.970;2022-08-06T02:20:10;2.17;;;1.90;;
35462;SDS011;21578;47.892;9.970;2022-08-06T02:25:01;2.10;;;2.00;;
35462;SDS011;21578;47.892;9.970;2022-08-06T02:29:54;1.97;;;1.87;;
35462;SDS011;21578;47.892;9.970;2022-08-06T02:34:44;2.00;;;1.90;;
35462;SDS011;21578;47.892;9.970;2022-08-06T02:39:32;2.63;;;2.43;;
35462;SDS011;21578;47.892;9.970;2022-08-06T02:44:27;2.87;;;2.67;;
35462;SDS011;21578;47.892;9.970;2022-08-06T02:49:23;3.83;;;2.53;;
35462;SDS011;21578;47.892;9.970;2022-08-06T02:54:15;2.43;;;2.23;;
35462;SDS011;21578;47.892;9.970;2022-08-06T02:59:06;2.60;;;2.50;;
35462;SDS011;21578;47.892;9.970;2022-08-06T03:03:55;3.07;;;2.87;;
35462;SDS011;21578;47.892;9.970;2022-08-06T03:08:46;4.60;;;3.00;;
35462;SDS011;21578;47.892;9.970;2022-08-06T03:13:37;3.00;;;2.80;;
35462;SDS011;21578;47.892;9.970;2022-08-06T03:18:24;2.80;;;2.60;;
35462;SDS011;21578;47.892;9.970;2022-08-06T03:23:13;2.97;;;2.77;;
35462;SDS011;21578;47.892;9.970;2022-08-06T03:28:02;3.57;;;3.23;;
35462;SDS011;21578;47.892;9.970;2022-08-06T03:32:50;3.67;;;3.37;;
35462;SDS011;21578;47.892;9.970;2022-08-06T03:37:38;4.27;;;3.93;;
35462;SDS011;21578;47.892;9.970;2022-08-06T03:42:27;4.13;;;3.83;;
35462;SDS011;21578;47.892;9.970;2022-08-06T03:47:19;4.77;;;4.20;;
35462;SDS011;21578;47.892;9.970;2022-08-06T03:52:11;8.80;;;5.60;;
35462;SDS011;21578;47.892;9.970;2022-08-06T03:57:03;8.90;;;7.83;;
35462;SDS011;21578;47.892;9.970;2022-08-06T04:01:54;12.03;;;8.20;;
35462;SDS011;21578;47.892;9.970;2022-08-06T04:06:46;7.33;;;6.10;;
35462;SDS011;21578;47.892;9.970;2022-08-06T04:11:34;8.73;;;6.20;;
35462;SDS011;21578;47.892;9.970;2022-08-06T04:16:21;6.63;;;5.53;;
35462;SDS011;21578;47.892;9.970;2022-08-06T04:21:10;5.67;;;5.07;;
35462;SDS011;21578;47.892;9.970;2022-08-06T04:26:03;7.07;;;5.03;;
35462;SDS011;21578;47.892;9.970;2022-08-06T04:30:53;5.77;;;5.27;;
35462;SDS011;21578;47.892;9.970;2022-08-06T04:35:42;6.37;;;5.30;;
35462;SDS011;21578;47.892;9.970;2022-08-06T04:40:30;7.30;;;6.17;;
35462;SDS011;21578;47.892;9.970;2022-08-06T04:45:19;7.23;;;5.77;;
35462;SDS011;21578;47.892;9.970;2022-08-06T04:50:07;8.03;;;5.87;;
35462;SDS011;21578;47.892;9.970;2022-08-06T04:54:55;6.23;;;5.63;;
35462;SDS011;21578;47.892;9.970;2022-08-06T04:59:42;6.93;;;6.20;;
35462;SDS011;21578;47.892;9.970;2022-08-06T05:09:26;7.13;;;5.97;;
35462;SDS011;21578;47.892;9.970;2022-08-06T05:14:15;6.43;;;5.80;;
35462;SDS011;21578;47.892;9.970;2022-08-06T05:19:08;7.97;;;6.00;;
35462;SDS011;21578;47.892;9.970;2022-08-06T05:23:59;6.20;;;5.60;;
35462;SDS011;21578;47.892;9.970;2022-08-06T05:28:49;6.77;;;5.90;;
35462;SDS011;21578;47.892;9.970;2022-08-06T05:33:37;6.57;;;5.90;;
35462;SDS011;21578;47.892;9.970;2022-08-06T05:38:25;6.03;;;5.53;;
35462;SDS011;21578;47.892;9.970;2022-08-06T05:43:12;6.10;;;5.60;;
35462;SDS011;21578;47.892;9.970;2022-08-06T05:48:01;6.30;;;5.70;;
35462;SDS011;21578;47.892;9.970;2022-08-06T05:52:53;7.17;;;5.87;;
35462;SDS011;21578;47.892;9.970;2022-08-06T05:57:47;10.43;;;5.63;;
35462;SDS011;21578;47.892;9.970;2022-08-06T06:02:38;11.20;;;6.00;;
35462;SDS011;21578;47.892;9.970;2022-08-06T06:07:29;8.77;;;5.20;;
35462;SDS011;21578;47.892;9.970;2022-08-06T06:12:16;9.07;;;5.83;;
35462;SDS011;21578;47.892;9.970;2022-08-06T06:17:14;7.07;;;5.60;;
35462;SDS011;21578;47.892;9.970;2022-08-06T06:22:25;7.67;;;5.67;;
35462;SDS011;21578;47.892;9.970;2022-08-06T06:27:32;5.70;;;5.20;;
35462;SDS011;21578;47.892;9.970;2022-08-06T06:32:28;5.90;;;5.40;;
35462;SDS011;21578;47.892;9.970;2022-08-06T06:37:31;6.83;;;5.90;;
35462;SDS011;21578;47.892;9.970;2022-08-06T06:42:27;7.60;;;5.77;;
35462;SDS011;21578;47.892;9.970;2022-08-06T06:47:21;7.07;;;5.77;;
35462;SDS011;21578;47.892;9.970;2022-08-06T06:52:17;8.03;;;6.07;;
35462;SDS011;21578;47.892;9.970;2022-08-06T06:57:13;6.47;;;5.87;;
35462;SDS011;21578;47.892;9.970;2022-08-06T07:02:05;6.90;;;5.40;;
35462;SDS011;21578;47.892;9.970;2022-08-06T07:06:57;6.27;;;5.67;;
35462;SDS011;21578;47.892;9.970;2022-08-06T07:11:45;7.67;;;6.23;;
35462;SDS011;21578;47.892;9.970;2022-08-06T07:16:36;6.43;;;5.83;;
35462;SDS011;21578;47.892;9.970;2022-08-06T07:21:25;6.50;;;6.00;;
35462;SDS011;21578;47.892;9.970;2022-08-06T07:26:13;6.53;;;5.80;;
35462;SDS011;21578;47.892;9.970;2022-08-06T07:31:03;6.23;;;5.60;;
35462;SDS011;21578;47.892;9.970;2022-08-06T07:35:54;5.90;;;5.40;;
35462;SDS011;21578;47.892;9.970;2022-08-06T07:40:42;6.00;;;5.47;;
35462;SDS011;21578;47.892;9.970;2022-08-06T07:45:33;5.87;;;4.80;;
35462;SDS011;21578;47.892;9.970;2022-08-06T07:50:21;6.90;;;5.70;;
35462;SDS011;21578;47.892;9.970;2022-08-06T07:55:12;5.70;;;5.20;;
35462;SDS011;21578;47.892;9.970;2022-08-06T08:00:00;5.80;;;5.30;;
35462;SDS011;21578;47.892;9.970;2022-08-06T08:04:47;5.43;;;5.00;;
35462;SDS011;21578;47.892;9.970;2022-08-06T08:09:52;5.60;;;5.07;;
35462;SDS011;21578;47.892;9.970;2022-08-06T08:14:42;5.47;;;5.03;;
35462;SDS011;21578;47.892;9.970;2022-08-06T08:19:31;5.97;;;5.43;;
35462;SDS011;21578;47.892;9.970;2022-08-06T08:24:19;6.50;;;4.93;;
35462;SDS011;21578;47.892;9.970;2022-08-06T08:29:06;5.80;;;5.40;;
35462;SDS011;21578;47.892;9.970;2022-08-06T08:33:56;5.80;;;5.37;;
35462;SDS011;21578;47.892;9.970;2022-08-06T08:38:43;8.77;;;5.73;;
35462;SDS011;21578;47.892;9.970;2022-08-06T08:43:32;6.70;;;6.20;;
35462;SDS011;21578;47.892;9.970;2022-08-06T08:48:23;7.47;;;6.73;;
35462;SDS011;21578;47.892;9.970;2022-08-06T08:53:15;8.07;;;7.37;;
35462;SDS011;21578;47.892;9.970;2022-08-06T08:58:11;7.03;;;6.33;;
35462;SDS011;21578;47.892;9.970;2022-08-06T09:02:59;8.57;;;7.83;;
35462;SDS011;21578;47.892;9.970;2022-08-06T09:07:51;8.53;;;7.73;;
35462;SDS011;21578;47.892;9.970;2022-08-06T09:12:40;9.00;;;8.20;;
35462;SDS011;21578;47.892;9.970;2022-08-06T09:17:28;10.57;;;9.17;;
35462;SDS011;21578;47.892;9.970;2022-08-06T09:22:15;10.27;;;9.13;;
35462;SDS011;21578;47.892;9.970;2022-08-06T09:27:04;10.27;;;9.27;;
35462;SDS011;21578;47.892;9.970;2022-08-06T09:31:54;10.73;;;9.63;;
35462;SDS011;21578;47.892;9.970;2022-08-06T09:36:41;11.33;;;10.10;;
35462;SDS011;21578;47.892;9.970;2022-08-06T09:41:30;10.47;;;9.43;;
35462;SDS011;21578;47.892;9.970;2022-08-06T09:46:18;10.70;;;9.57;;
35462;SDS011;21578;47.892;9.970;2022-08-06T09:51:22;11.77;;;9.17;;
35462;SDS011;21578;47.892;9.970;2022-08-06T09:56:14;11.40;;;9.97;;
35462;SDS011;21578;47.892;9.970;2022-08-06T10:01:11;11.13;;;10.13;;
35462;SDS011;21578;47.892;9.970;2022-08-06T10:06:02;11.47;;;10.27;;
35462;SDS011;21578;47.892;9.970;2022-08-06T10:10:51;10.50;;;9.37;;
35462;SDS011;21578;47.892;9.970;2022-08-06T10:15:39;11.67;;;10.47;;
35462;SDS011;21578;47.892;9.970;2022-08-06T10:20:26;10.40;;;9.30;;
35462;SDS011;21578;47.892;9.970;2022-08-06T10:25:13;10.53;;;9.53;;
35462;SDS011;21578;47.892;9.970;2022-08-06T10:30:03;11.23;;;10.03;;
35462;SDS011;21578;47.892;9.970;2022-08-06T10:34:52;10.27;;;9.27;;
35462;SDS011;21578;47.892;9.970;2022-08-06T10:39:42;11.50;;;10.30;;
35462;SDS011;21578;47.892;9.970;2022-08-06T10:44:34;11.60;;;10.03;;
35462;SDS011;21578;47.892;9.970;2022-08-06T10:49:23;10.77;;;9.73;;
35462;SDS011;21578;47.892;9.970;2022-08-06T10:54:11;11.13;;;10.00;;
35462;SDS011;21578;47.892;9.970;2022-08-06T10:58:58;12.33;;;10.50;;
35462;SDS011;21578;47.892;9.970;2022-08-06T11:03:50;11.33;;;10.23;;
35462;SDS011;21578;47.892;9.970;2022-08-06T11:08:48;11.37;;;10.27;;
35462;SDS011;21578;47.892;9.970;2022-08-06T11:13:48;11.73;;;10.40;;
35462;SDS011;21578;47.892;9.970;2022-08-06T11:23:50;11.57;;;10.47;;
35462;SDS011;21578;47.892;9.970;2022-08-06T11:28:56;9.90;;;9.00;;
35462;SDS011;21578;47.892;9.970;2022-08-06T11:34:01;10.47;;;9.47;;
35462;SDS011;21578;47.892;9.970;2022-08-06T11:38:57;10.30;;;9.40;;
35462;SDS011;21578;47.892;9.970;2022-08-06T11:43:46;9.63;;;8.83;;
35462;SDS011;21578;47.892;9.970;2022-08-06T11:48:36;10.80;;;9.77;;
35462;SDS011;21578;47.892;9.970;2022-08-06T11:54:11;10.57;;;9.47;;
35462;SDS011;21578;47.892;9.970;2022-08-06T11:59:12;10.27;;;9.37;;
35462;SDS011;21578;47.892;9.970;2022-08-06T12:03:59;10.80;;;9.90;;
35462;SDS011;21578;47.892;9.970;2022-08-06T12:13:53;10.73;;;9.73;;
35462;SDS011;21578;47.892;9.970;2022-08-06T12:18:41;10.30;;;9.30;;
35462;SDS011;21578;47.892;9.970;2022-08-06T12:23:28;10.67;;;9.67;;
35462;SDS011;21578;47.892;9.970;2022-08-06T12:28:16;11.90;;;9.97;;
35462;SDS011;21578;47.892;9.970;2022-08-06T12:33:06;10.57;;;9.57;;
35462;SDS011;21578;47.892;9.970;2022-08-06T12:37:53;8.90;;;8.00;;
35462;SDS011;21578;47.892;9.970;2022-08-06T12:42:41;9.37;;;8.43;;
35462;SDS011;21578;47.892;9.970;2022-08-06T12:47:28;9.87;;;9.07;;
35462;SDS011;21578;47.892;9.970;2022-08-06T12:52:17;9.70;;;8.70;;
35462;SDS011;21578;47.892;9.970;2022-08-06T12:57:05;9.97;;;9.07;;
35462;SDS011;21578;47.892;9.970;2022-08-06T13:01:52;10.20;;;9.20;;
35462;SDS011;21578;47.892;9.970;2022-08-06T13:06:40;10.47;;;9.50;;
35462;SDS011;21578;47.892;9.970;2022-08-06T13:11:32;10.97;;;9.87;;
35462;SDS011;21578;47.892;9.970;2022-08-06T13:16:19;10.00;;;9.10;;
35462;SDS011;21578;47.892;9.970;2022-08-06T13:21:15;11.00;;;10.00;;
35462;SDS011;21578;47.892;9.970;2022-08-06T13:26:10;11.27;;;10.13;;
35462;SDS011;21578;47.892;9.970;2022-08-06T13:31:00;11.57;;;10.40;;
35462;SDS011;21578;47.892;9.970;2022-08-06T13:35:48;10.67;;;9.70;;
35462;SDS011;21578;47.892;9.970;2022-08-06T13:40:37;11.17;;;10.07;;
35462;SDS011;21578;47.892;9.970;2022-08-06T13:45:28;10.63;;;9.63;;
35462;SDS011;21578;47.892;9.970;2022-08-06T13:50:18;11.37;;;10.20;;
35462;SDS011;21578;47.892;9.970;2022-08-06T13:55:05;11.60;;;10.20;;
35462;SDS011;21578;47.892;9.970;2022-08-06T13:59:53;12.03;;;10.90;;
35462;SDS011;21578;47.892;9.970;2022-08-06T14:04:40;11.80;;;10.73;;
35462;SDS011;21578;47.892;9.970;2022-08-06T14:09:28;11.33;;;10.10;;
35462;SDS011;21578;47.892;9.970;2022-08-06T14:14:16;12.33;;;11.23;;
35462;SDS011;21578;47.892;9.970;2022-08-06T14:19:03;12.90;;;10.63;;
35462;SDS011;21578;47.892;9.970;2022-08-06T14:23:50;12.50;;;11.20;;
35462;SDS011;21578;47.892;9.970;2022-08-06T14:28:39;12.03;;;10.93;;
35462;SDS011;21578;47.892;9.970;2022-08-06T14:33:26;11.63;;;10.43;;
35462;SDS011;21578;47.892;9.970;2022-08-06T14:38:13;11.83;;;10.63;;
35462;SDS011;21578;47.892;9.970;2022-08-06T14:43:00;12.07;;;10.87;;
35462;SDS011;21578;47.892;9.970;2022-08-06T14:48:06;12.50;;;11.27;;
35462;SDS011;21578;47.892;9.970;2022-08-06T14:52:53;12.73;;;11.53;;
35462;SDS011;21578;47.892;9.970;2022-08-06T14:57:40;11.53;;;10.40;;
35462;SDS011;21578;47.892;9.970;2022-08-06T15:02:27;12.30;;;11.10;;
35462;SDS011;21578;47.892;9.970;2022-08-06T15:07:15;11.90;;;10.80;;
35462;SDS011;21578;47.892;9.970;2022-08-06T15:12:02;11.80;;;10.70;;
35462;SDS011;21578;47.892;9.970;2022-08-06T15:16:50;10.63;;;9.63;;
35462;SDS011;21578;47.892;9.970;2022-08-06T15:21:37;12.33;;;11.23;;
35462;SDS011;21578;47.892;9.970;2022-08-06T15:26:26;12.03;;;10.83;;
35462;SDS011;21578;47.892;9.970;2022-08-06T15:31:13;11.27;;;10.27;;
35462;SDS011;21578;47.892;9.970;2022-08-06T15:36:00;11.47;;;10.37;;
35462;SDS011;21578;47.892;9.970;2022-08-06T15:40:47;10.73;;;9.73;;
35462;SDS011;21578;47.892;9.970;2022-08-06T15:45:35;12.03;;;10.87;;
35462;SDS011;21578;47.892;9.970;2022-08-06T15:50:23;12.20;;;11.03;;
35462;SDS011;21578;47.892;9.970;2022-08-06T15:55:10;11.07;;;10.07;;
35462;SDS011;21578;47.892;9.970;2022-08-06T15:59:57;11.43;;;10.37;;
35462;SDS011;21578;47.892;9.970;2022-08-06T16:04:46;12.87;;;11.67;;
35462;SDS011;21578;47.892;9.970;2022-08-06T16:09:34;12.17;;;10.97;;
35462;SDS011;21578;47.892;9.970;2022-08-06T16:14:21;12.07;;;10.93;;
35462;SDS011;21578;47.892;9.970;2022-08-06T16:19:11;12.07;;;10.87;;
35462;SDS011;21578;47.892;9.970;2022-08-06T16:23:59;12.40;;;11.33;;
35462;SDS011;21578;47.892;9.970;2022-08-06T16:28:48;12.87;;;11.77;;
35462;SDS011;21578;47.892;9.970;2022-08-06T16:33:35;12.43;;;11.30;;
35462;SDS011;21578;47.892;9.970;2022-08-06T16:38:22;13.03;;;11.60;;
35462;SDS011;21578;47.892;9.970;2022-08-06T16:43:10;13.80;;;11.27;;
35462;SDS011;21578;47.892;9.970;2022-08-06T16:47:57;11.10;;;10.07;;
35462;SDS011;21578;47.892;9.970;2022-08-06T16:52:44;11.37;;;10.27;;
35462;SDS011;21578;47.892;9.970;2022-08-06T16:57:32;9.67;;;8.77;;
35462;SDS011;21578;47.892;9.970;2022-08-06T17:02:21;9.67;;;8.73;;
35462;SDS011;21578;47.892;9.970;2022-08-06T17:07:23;10.73;;;9.63;;
35462;SDS011;21578;47.892;9.970;2022-08-06T17:12:10;10.37;;;9.57;;
35462;SDS011;21578;47.892;9.970;2022-08-06T17:16:58;9.90;;;8.90;;
35462;SDS011;21578;47.892;9.970;2022-08-06T17:21:48;9.43;;;8.67;;
35462;SDS011;21578;47.892;9.970;2022-08-06T17:26:36;9.57;;;8.67;;
35462;SDS011;21578;47.892;9.970;2022-08-06T17:31:23;9.43;;;8.43;;
35462;SDS011;21578;47.892;9.970;2022-08-06T17:36:10;9.60;;;8.67;;
35462;SDS011;21578;47.892;9.970;2022-08-06T17:40:59;8.13;;;7.43;;
35462;SDS011;21578;47.892;9.970;2022-08-06T17:45:46;9.87;;;8.93;;
35462;SDS011;21578;47.892;9.970;2022-08-06T17:50:33;9.10;;;8.10;;
35462;SDS011;21578;47.892;9.970;2022-08-06T17:55:20;8.27;;;7.47;;
35462;SDS011;21578;47.892;9.970;2022-08-06T18:00:09;8.67;;;7.77;;
35462;SDS011;21578;47.892;9.970;2022-08-06T18:04:57;9.70;;;8.70;;
35462;SDS011;21578;47.892;9.970;2022-08-06T18:09:44;10.63;;;9.20;;
35462;SDS011;21578;47.892;9.970;2022-08-06T18:14:46;6.30;;;5.83;;
35462;SDS011;21578;47.892;9.970;2022-08-06T18:19:35;8.10;;;7.27;;
35462;SDS011;21578;47.892;9.970;2022-08-06T18:24:22;8.77;;;8.00;;
35462;SDS011;21578;47.892;9.970;2022-08-06T18:29:09;8.30;;;7.50;;
35462;SDS011;21578;47.892;9.970;2022-08-06T18:33:56;8.93;;;8.13;;
35462;SDS011;21578;47.892;9.970;2022-08-06T18:38:44;11.67;;;10.23;;
35462;SDS011;21578;47.892;9.970;2022-08-06T18:43:31;13.73;;;11.20;;
35462;SDS011;21578;47.892;9.970;2022-08-06T18:48:18;8.60;;;7.80;;
35462;SDS011;21578;47.892;9.970;2022-08-06T18:53:05;9.43;;;8.53;;
35462;SDS011;21578;47.892;9.970;2022-08-06T18:57:54;8.90;;;8.03;;
35462;SDS011;21578;47.892;9.970;2022-08-06T19:02:41;10.17;;;9.20;;
35462;SDS011;21578;47.892;9.970;2022-08-06T19:07:28;7.70;;;7.07;;
35462;SDS011;21578;47.892;9.970;2022-08-06T19:12:15;8.40;;;7.70;;
35462;SDS011;21578;47.892;9.970;2022-08-06T19:17:04;8.57;;;7.87;;
35462;SDS011;21578;47.892;9.970;2022-08-06T19:21:52;9.33;;;8.53;;
35462;SDS011;21578;47.892;9.970;2022-08-06T19:26:40;10.03;;;9.07;;
35462;SDS011;21578;47.892;9.970;2022-08-06T19:31:27;9.63;;;8.73;;
35462;SDS011;21578;47.892;9.970;2022-08-06T19:36:15;10.30;;;9.47;;
35462;SDS011;21578;47.892;9.970;2022-08-06T19:41:02;9.97;;;9.07;;
35462;SDS011;21578;47.892;9.970;2022-08-06T19:45:49;11.53;;;10.37;;
35462;SDS011;21578;47.892;9.970;2022-08-06T19:50:36;11.00;;;9.80;;
35462;SDS011;21578;47.892;9.970;2022-08-06T19:55:25;11.93;;;10.77;;
35462;SDS011;21578;47.892;9.970;2022-08-06T20:00:12;12.27;;;11.10;;
35462;SDS011;21578;47.892;9.970;2022-08-06T20:05:00;10.97;;;9.97;;
35462;SDS011;21578;47.892;9.970;2022-08-06T20:09:47;11.60;;;10.53;;
35462;SDS011;21578;47.892;9.970;2022-08-06T20:14:36;11.50;;;10.50;;
35462;SDS011;21578;47.892;9.970;2022-08-06T20:19:23;11.20;;;10.20;;
35462;SDS011;21578;47.892;9.970;2022-08-06T20:24:10;11.37;;;10.37;;
35462;SDS011;21578;47.892;9.970;2022-08-06T20:28:58;11.87;;;10.50;;
35462;SDS011;21578;47.892;9.970;2022-08-06T20:33:46;11.90;;;10.80;;
35462;SDS011;21578;47.892;9.970;2022-08-06T20:38:33;13.47;;;12.17;;
35462;SDS011;21578;47.892;9.970;2022-08-06T20:43:20;18.20;;;16.37;;
35462;SDS011;21578;47.892;9.970;2022-08-06T20:48:07;13.87;;;12.57;;
35462;SDS011;21578;47.892;9.970;2022-08-06T20:52:56;12.23;;;11.13;;
35462;SDS011;21578;47.892;9.970;2022-08-06T20:57:43;12.87;;;11.67;;
35462;SDS011;21578;47.892;9.970;2022-08-06T21:02:30;13.13;;;11.93;;
35462;SDS011;21578;47.892;9.970;2022-08-06T21:07:17;13.70;;;12.40;;
35462;SDS011;21578;47.892;9.970;2022-08-06T21:12:06;12.83;;;11.60;;
35462;SDS011;21578;47.892;9.970;2022-08-06T21:16:53;15.30;;;13.77;;
35462;SDS011;21578;47.892;9.970;2022-08-06T21:21:40;14.47;;;13.17;;
35462;SDS011;21578;47.892;9.970;2022-08-06T21:26:27;14.33;;;13.07;;
35462;SDS011;21578;47.892;9.970;2022-08-06T21:31:15;14.10;;;12.70;;
35462;SDS011;21578;47.892;9.970;2022-08-06T21:36:03;13.13;;;12.03;;
35462;SDS011;21578;47.892;9.970;2022-08-06T21:40:50;13.60;;;12.30;;
35462;SDS011;21578;47.892;9.970;2022-08-06T21:45:37;13.50;;;12.20;;
35462;SDS011;21578;47.892;9.970;2022-08-06T21:50:25;14.43;;;12.93;;
35462;SDS011;21578;47.892;9.970;2022-08-06T21:55:13;14.67;;;13.23;;
35462;SDS011;21578;47.892;9.970;2022-08-06T22:00:01;14.87;;;13.37;;
35462;SDS011;21578;47.892;9.970;2022-08-06T22:04:49;13.60;;;12.27;;
35462;SDS011;21578;47.892;9.970;2022-08-06T22:09:37;12.63;;;11.43;;
35462;SDS011;21578;47.892;9.970;2022-08-06T22:14:24;13.53;;;12.23;;
35462;SDS011;21578;47.892;9.970;2022-08-06T22:19:11;13.80;;;12.40;;
35462;SDS011;21578;47.892;9.970;2022-08-06T22:23:59;14.20;;;12.80;;
35462;SDS011;21578;47.892;9.970;2022-08-06T22:28:47;12.33;;;11.17;;
35462;SDS011;21578;47.892;9.970;2022-08-06T22:33:34;13.10;;;11.90;;
35462;SDS011;21578;47.892;9.970;2022-08-06T22:38:21;13.87;;;12.57;;
35462;SDS011;21578;47.892;9.970;2022-08-06T22:43:09;15.10;;;13.60;;
35462;SDS011;21578;47.892;9.970;2022-08-06T22:47:58;13.47;;;12.17;;
35462;SDS011;21578;47.892;9.970;2022-08-06T22:52:45;12.57;;;11.37;;
35462;SDS011;21578;47.892;9.970;2022-08-06T22:57:32;13.77;;;12.57;;
35462;SDS011;21578;47.892;9.970;2022-08-06T23:02:19;13.87;;;12.57;;
35462;SDS011;21578;47.892;9.970;2022-08-06T23:07:08;15.13;;;13.63;;
35462;SDS011;21578;47.892;9.970;2022-08-06T23:11:56;17.60;;;15.90;;
35462;SDS011;21578;47.892;9.970;2022-08-06T23:16:43;15.87;;;14.37;;
35462;SDS011;21578;47.892;9.970;2022-08-06T23:21:30;17.03;;;15.33;;
35462;SDS011;21578;47.892;9.970;2022-08-06T23:26:19;16.33;;;14.83;;
35462;SDS011;21578;47.892;9.970;2022-08-06T23:31:07;16.43;;;14.90;;
35462;SDS011;21578;47.892;9.970;2022-08-06T23:35:54;16.33;;;14.63;;
35462;SDS011;21578;47.892;9.970;2022-08-06T23:40:41;25.10;;;22.57;;
35462;SDS011;21578;47.892;9.970;2022-08-06T23:45:29;18.73;;;16.83;;
35462;SDS011;21578;47.892;9.970;2022-08-06T23:50:16;18.70;;;16.80;;
35462;SDS011;21578;47.892;9.970;2022-08-06T23:55:04;17.00;;;15.40;;
35462;SDS011;21578;47.892;9.970;2022-08-06T23:59:52;18.90;;;17.07;;
